createdAt,value
2023-04-19T00:02:25.690Z,4.50
2023-04-19T00:04:53.589Z,4.63
2023-04-19T00:07:20.991Z,4.13
2023-04-19T00:09:48.290Z,5.05
2023-04-19T00:12:15.535Z,4.05
2023-04-19T00:14:42.816Z,4.60
2023-04-19T00:17:11.561Z,4.85
2023-04-19T00:19:39.172Z,4.38
2023-04-19T00:22:06.460Z,3.53
2023-04-19T00:24:33.656Z,3.92
2023-04-19T00:27:01.889Z,3.90
2023-04-19T00:29:29.203Z,4.75
2023-04-19T00:31:56.415Z,4.82
2023-04-19T00:34:24.554Z,4.15
2023-04-19T00:36:51.924Z,4.35
2023-04-19T00:39:19.302Z,4.50
2023-04-19T00:41:46.493Z,4.57
2023-04-19T00:44:14.093Z,4.00
2023-04-19T00:46:43.384Z,4.60
2023-04-19T00:49:10.787Z,4.70
2023-04-19T00:51:38.368Z,4.80
2023-04-19T00:54:06.551Z,4.53
2023-04-19T00:56:35.712Z,4.65
2023-04-19T00:59:03.035Z,4.57
2023-04-19T01:01:31.606Z,4.80
2023-04-19T01:03:59.131Z,4.22
2023-04-19T01:06:30.018Z,4.75
2023-04-19T01:08:57.569Z,4.45
2023-04-19T01:11:25.558Z,4.60
2023-04-19T01:13:52.937Z,4.35
2023-04-19T01:16:20.376Z,4.97
2023-04-19T01:18:50.044Z,4.45
2023-04-19T01:21:17.348Z,4.93
2023-04-19T01:23:45.397Z,5.35
2023-04-19T01:26:12.712Z,5.38
2023-04-19T01:28:39.981Z,6.05
2023-04-19T01:31:07.331Z,5.88
2023-04-19T01:33:34.629Z,6.05
2023-04-19T01:36:01.889Z,5.53
2023-04-19T01:38:29.160Z,5.38
2023-04-19T01:40:57.377Z,6.15
2023-04-19T01:43:25.309Z,6.28
2023-04-19T01:45:52.723Z,5.72
2023-04-19T01:48:20.433Z,6.25
2023-04-19T01:50:47.731Z,6.95
2023-04-19T01:53:15.073Z,5.78
2023-04-19T01:55:42.688Z,6.63
2023-04-19T01:58:09.975Z,5.95
2023-04-19T02:00:37.291Z,6.18
2023-04-19T02:03:05.254Z,6.10
2023-04-19T02:05:32.749Z,6.07
2023-04-19T02:08:01.562Z,5.53
2023-04-19T02:10:31.434Z,5.70
2023-04-19T02:12:58.791Z,5.60
2023-04-19T02:15:26.194Z,5.93
2023-04-19T02:17:54.037Z,6.07
2023-04-19T02:20:21.376Z,5.63
2023-04-19T02:22:49.600Z,6.90
2023-04-19T02:25:16.923Z,6.05
2023-04-19T02:27:46.606Z,5.43
2023-04-19T02:30:14.267Z,6.43
2023-04-19T02:32:41.559Z,5.82
2023-04-19T02:35:09.039Z,6.68
2023-04-19T02:37:36.237Z,6.18
2023-04-19T02:40:05.441Z,4.95
2023-04-19T02:42:32.684Z,6.03
2023-04-19T02:45:00.083Z,5.93
2023-04-19T02:47:27.471Z,5.47
2023-04-19T02:49:54.662Z,6.10
2023-04-19T02:52:22.392Z,7.38
2023-04-19T02:54:49.675Z,8.13
2023-04-19T02:57:16.923Z,7.90
2023-04-19T02:59:45.095Z,8.38
2023-04-19T03:02:12.457Z,8.43
2023-04-19T03:04:40.057Z,8.82
2023-04-19T03:07:08.999Z,9.25
2023-04-19T03:09:36.634Z,7.88
2023-04-19T03:12:05.258Z,8.60
2023-04-19T03:14:33.990Z,9.75
2023-04-19T03:17:01.262Z,9.23
2023-04-19T03:19:28.867Z,8.40
2023-04-19T03:21:56.328Z,8.70
2023-04-19T03:24:30.864Z,8.60
2023-04-19T03:27:03.339Z,8.30
2023-04-19T03:29:31.757Z,9.13
2023-04-19T03:32:02.925Z,8.45
2023-04-19T03:34:30.775Z,7.90
2023-04-19T03:36:58.121Z,7.85
2023-04-19T03:39:25.466Z,9.10
2023-04-19T03:42:01.319Z,8.88
2023-04-19T03:44:37.579Z,8.23
2023-04-19T03:47:07.228Z,8.50
2023-04-19T03:49:40.948Z,7.65
2023-04-19T03:52:08.208Z,7.07
2023-04-19T03:54:35.684Z,7.85
2023-04-19T03:57:07.606Z,6.57
2023-04-19T03:59:38.731Z,7.95
2023-04-19T04:02:07.013Z,7.50
2023-04-19T04:04:34.844Z,8.30
2023-04-19T04:07:02.422Z,8.00
2023-04-19T04:09:29.831Z,7.82
2023-04-19T04:11:57.239Z,7.00
2023-04-19T04:14:25.504Z,6.47
2023-04-19T04:16:53.096Z,7.07
2023-04-19T04:19:22.056Z,7.90
2023-04-19T04:21:50.315Z,7.70
2023-04-19T04:24:20.093Z,6.72
2023-04-19T04:27:10.047Z,6.90
2023-04-19T04:29:41.169Z,8.07
2023-04-19T04:32:10.524Z,7.22
2023-04-19T04:34:42.621Z,7.82
2023-04-19T04:37:13.866Z,7.03
2023-04-19T04:39:42.092Z,6.85
2023-04-19T04:42:10.970Z,7.55
2023-04-19T04:44:39.002Z,6.80
2023-04-19T04:47:07.928Z,7.25
2023-04-19T04:49:48.070Z,6.97
2023-04-19T04:52:17.374Z,7.18
2023-04-19T04:54:57.314Z,6.97
2023-04-19T04:57:30.094Z,6.88
2023-04-19T04:59:58.181Z,6.72
2023-04-19T05:02:29.211Z,6.65
2023-04-19T05:04:56.657Z,7.53
2023-04-19T05:07:24.007Z,6.55
2023-04-19T05:09:51.884Z,7.45
2023-04-19T05:12:24.472Z,8.75
2023-04-19T05:14:51.917Z,7.38
2023-04-19T05:17:19.212Z,7.32
2023-04-19T05:19:46.892Z,8.00
2023-04-19T05:22:14.369Z,7.15
2023-04-19T05:24:42.458Z,7.65
2023-04-19T05:27:10.373Z,7.70
2023-04-19T05:29:37.620Z,6.72
2023-04-19T05:32:06.457Z,7.82
2023-04-19T05:34:37.293Z,7.75
2023-04-19T05:37:05.769Z,7.70
2023-04-19T05:39:33.329Z,6.93
2023-04-19T05:42:01.729Z,7.13
2023-04-19T05:44:29.073Z,7.88
2023-04-19T05:46:56.397Z,7.93
2023-04-19T05:49:49.677Z,7.93
2023-04-19T05:52:31.273Z,6.95
2023-04-19T05:55:00.318Z,7.47
2023-04-19T05:57:27.980Z,7.30
2023-04-19T05:59:55.434Z,8.60
2023-04-19T06:02:26.525Z,8.40
2023-04-19T06:04:54.154Z,7.97
2023-04-19T06:07:30.871Z,8.25
2023-04-19T06:10:00.487Z,7.20
2023-04-19T06:12:28.022Z,7.03
2023-04-19T06:14:55.291Z,7.43
2023-04-19T06:17:25.028Z,7.32
2023-04-19T06:19:52.940Z,6.38
2023-04-19T06:22:20.788Z,7.40
2023-04-19T06:24:48.282Z,6.38
2023-04-19T06:27:16.956Z,6.85
2023-04-19T06:29:44.201Z,6.65
2023-04-19T06:32:11.787Z,6.50
2023-04-19T06:34:39.050Z,6.00
2023-04-19T06:37:06.330Z,6.05
2023-04-19T06:39:33.682Z,5.65
2023-04-19T06:42:02.342Z,6.07
2023-04-19T06:44:29.750Z,5.57
2023-04-19T06:46:56.938Z,5.30
2023-04-19T06:49:24.452Z,5.43
2023-04-19T06:51:51.759Z,5.32
2023-04-19T06:54:19.430Z,5.60
2023-04-19T06:56:48.803Z,5.35
2023-04-19T06:59:19.145Z,4.60
2023-04-19T07:01:47.668Z,5.30
2023-04-19T07:04:16.015Z,5.00
2023-04-19T07:06:43.568Z,5.28
2023-04-19T07:09:10.845Z,4.35
2023-04-19T07:11:38.070Z,4.55
2023-04-19T07:14:05.379Z,5.07
2023-04-19T07:16:33.540Z,5.53
2023-04-19T07:19:01.127Z,4.75
2023-04-19T07:21:32.871Z,4.55
2023-04-19T07:24:00.221Z,4.97
2023-04-19T07:26:27.516Z,4.22
2023-04-19T07:28:54.683Z,5.45
2023-04-19T07:31:22.022Z,6.38
2023-04-19T07:33:49.359Z,4.47
2023-04-19T07:36:16.802Z,4.15
2023-04-19T07:38:44.212Z,4.82
2023-04-19T07:41:11.578Z,3.92
2023-04-19T07:43:39.409Z,3.95
2023-04-19T07:46:16.220Z,3.92
2023-04-19T07:48:43.761Z,4.47
2023-04-19T07:51:16.754Z,3.88
2023-04-19T07:53:44.459Z,3.45
2023-04-19T07:56:13.291Z,4.10
2023-04-19T07:58:41.491Z,4.28
2023-04-19T08:01:09.110Z,3.80
2023-04-19T08:03:37.751Z,3.63
2023-04-19T08:06:08.824Z,4.25
2023-04-19T08:08:37.198Z,3.67
2023-04-19T08:11:05.179Z,4.32
2023-04-19T08:13:32.473Z,4.35
2023-04-19T08:18:29.928Z,4.40
2023-04-19T08:20:58.033Z,3.85
2023-04-19T08:23:31.774Z,3.97
2023-04-19T08:26:05.967Z,3.72
2023-04-19T08:28:33.340Z,3.78
2023-04-19T08:31:00.724Z,3.85
2023-04-19T08:33:32.038Z,4.20
2023-04-19T08:35:59.415Z,4.40
2023-04-19T08:38:26.722Z,4.53
2023-04-19T08:40:58.020Z,3.90
2023-04-19T08:43:28.686Z,4.45
2023-04-19T08:45:57.072Z,4.65
2023-04-19T08:48:25.572Z,4.30
2023-04-19T08:51:04.295Z,3.88
2023-04-19T08:53:34.922Z,3.90
2023-04-19T08:56:15.175Z,3.70
2023-04-19T09:04:02.610Z,3.60
2023-04-19T09:06:38.953Z,3.50
2023-04-19T09:11:50.790Z,4.00
2023-04-19T09:14:19.747Z,4.10
2023-04-19T09:16:47.030Z,3.97
2023-04-19T09:19:23.916Z,4.80
2023-04-19T09:21:54.757Z,3.97
2023-04-19T09:27:13.954Z,3.38
2023-04-19T09:29:41.176Z,4.32
2023-04-19T09:32:08.558Z,4.10
2023-04-19T09:34:35.844Z,3.72
2023-04-19T09:37:21.452Z,4.10
2023-04-19T09:40:00.286Z,3.55
2023-04-19T09:48:04.752Z,3.00
2023-04-19T09:50:33.888Z,3.28
2023-04-19T09:53:06.597Z,3.70
2023-04-19T09:55:52.495Z,2.70
2023-04-19T09:58:29.304Z,2.90
2023-04-19T10:01:13.459Z,3.05
2023-04-19T10:03:48.946Z,3.53
2023-04-19T10:08:53.452Z,3.22
2023-04-19T10:11:22.386Z,2.40
2023-04-19T10:13:53.843Z,2.78
2023-04-19T10:16:21.160Z,2.95
2023-04-19T10:18:52.866Z,2.97
2023-04-19T10:21:20.983Z,3.10
2023-04-19T10:23:48.537Z,2.65
2023-04-19T10:26:16.139Z,3.00
2023-04-19T10:28:43.526Z,2.60
2023-04-19T10:31:14.265Z,2.67
2023-04-19T10:33:42.280Z,2.30
2023-04-19T10:36:11.666Z,2.63
2023-04-19T10:38:57.100Z,2.80
2023-04-19T10:41:24.409Z,2.90
2023-04-19T10:43:58.077Z,2.90
2023-04-19T10:46:26.141Z,2.70
2023-04-19T10:48:58.769Z,3.00
2023-04-19T10:51:35.680Z,2.20
2023-04-19T10:54:04.677Z,2.42
2023-04-19T10:56:35.027Z,2.55
2023-04-19T10:59:08.442Z,2.15
2023-04-19T11:01:45.813Z,2.70
2023-04-19T11:04:29.954Z,1.75
2023-04-19T11:07:02.831Z,3.00
2023-04-19T11:09:39.279Z,2.95
2023-04-19T11:12:08.559Z,2.30
2023-04-19T11:14:46.626Z,2.80
2023-04-19T11:17:18.293Z,2.50
2023-04-19T11:19:52.895Z,2.47
2023-04-19T11:22:44.515Z,2.83
2023-04-19T11:25:19.483Z,2.85
2023-04-19T11:27:49.345Z,2.35
2023-04-19T11:30:31.119Z,1.98
2023-04-19T11:32:58.653Z,2.30
2023-04-19T11:35:27.629Z,2.50
2023-04-19T11:37:56.938Z,2.30
2023-04-19T11:40:26.280Z,2.53
2023-04-19T11:42:55.901Z,2.63
2023-04-19T11:45:34.391Z,2.65
2023-04-19T11:48:06.214Z,2.45
2023-04-19T11:50:40.785Z,2.20
2023-04-19T11:53:16.873Z,2.38
2023-04-19T11:55:48.625Z,1.95
2023-04-19T11:58:31.024Z,2.22
2023-04-19T12:01:07.231Z,1.98
2023-04-19T12:03:44.999Z,2.08
2023-04-19T12:06:17.833Z,2.05
2023-04-19T12:08:49.918Z,2.30
2023-04-19T12:11:19.292Z,2.17
2023-04-19T12:13:46.559Z,1.80
2023-04-19T12:16:14.186Z,2.13
2023-04-19T12:18:48.244Z,1.75
2023-04-19T12:21:27.175Z,1.42
2023-04-19T12:23:58.792Z,1.48
2023-04-19T12:26:29.811Z,1.77
2023-04-19T12:28:58.636Z,1.95
2023-04-19T12:31:27.008Z,1.90
2023-04-19T12:33:54.451Z,1.98
2023-04-19T12:36:22.366Z,1.90
2023-04-19T12:38:49.653Z,2.25
2023-04-19T12:41:16.934Z,1.42
2023-04-19T12:43:44.144Z,1.67
2023-04-19T12:46:11.569Z,2.00
2023-04-19T12:48:39.728Z,1.67
2023-04-19T12:51:07.057Z,1.77
2023-04-19T12:53:34.348Z,1.92
2023-04-19T12:56:01.700Z,1.60
2023-04-19T12:58:29.098Z,1.60
2023-04-19T13:00:56.515Z,1.70
2023-04-19T13:03:23.847Z,1.77
2023-04-19T13:05:51.192Z,1.90
2023-04-19T13:08:28.190Z,1.98
2023-04-19T13:11:01.190Z,2.28
2023-04-19T13:13:29.436Z,1.50
2023-04-19T13:15:56.694Z,2.30
2023-04-19T13:18:23.990Z,1.92
2023-04-19T13:20:51.227Z,1.60
2023-04-19T13:23:18.552Z,1.80
2023-04-19T13:25:46.169Z,1.95
2023-04-19T13:28:13.441Z,2.55
2023-04-19T13:30:41.042Z,1.95
2023-04-19T13:33:09.011Z,2.03
2023-04-19T13:35:36.637Z,1.70
2023-04-19T13:38:03.886Z,2.55
2023-04-19T13:40:31.281Z,1.90
2023-04-19T13:42:59.092Z,2.85
2023-04-19T13:45:26.702Z,2.13
2023-04-19T13:47:54.372Z,1.92
2023-04-19T13:50:21.672Z,1.85
2023-04-19T13:52:48.928Z,2.17
2023-04-19T13:55:16.299Z,1.77
2023-04-19T13:57:43.840Z,2.53
2023-04-19T14:00:11.473Z,1.85
2023-04-19T14:02:39.140Z,1.80
2023-04-19T14:05:07.104Z,2.50
2023-04-19T14:07:34.327Z,2.17
2023-04-19T14:10:01.774Z,2.05
2023-04-19T14:12:29.191Z,2.10
2023-04-19T14:14:56.492Z,1.77
2023-04-19T14:17:23.768Z,1.98
2023-04-19T14:19:51.167Z,1.80
2023-04-19T14:22:18.645Z,2.15
2023-04-19T14:24:46.256Z,2.10
2023-04-19T14:27:13.525Z,2.13
2023-04-19T14:29:40.769Z,2.67
2023-04-19T14:32:24.175Z,2.20
2023-04-19T14:34:54.826Z,1.90
2023-04-19T14:37:23.575Z,2.42
2023-04-19T14:39:51.094Z,2.20
2023-04-19T14:42:20.087Z,2.22
2023-04-19T14:44:51.347Z,2.28
2023-04-19T14:47:18.745Z,1.92
2023-04-19T14:49:46.179Z,2.80
2023-04-19T14:52:13.428Z,2.22
2023-04-19T14:54:40.922Z,2.88
2023-04-19T14:57:08.320Z,2.60
2023-04-19T14:59:35.708Z,2.15
2023-04-19T15:02:03.104Z,2.50
2023-04-19T15:04:30.671Z,2.38
2023-04-19T15:06:57.997Z,2.13
2023-04-19T15:09:26.851Z,1.88
2023-04-19T15:11:54.068Z,2.13
2023-04-19T15:14:21.250Z,2.00
2023-04-19T15:16:48.548Z,2.10
2023-04-19T15:19:16.525Z,2.05
2023-04-19T15:21:44.167Z,2.40
2023-04-19T15:24:11.846Z,2.28
2023-04-19T15:26:39.264Z,2.08
2023-04-19T15:29:06.529Z,2.25
2023-04-19T15:31:33.896Z,2.03
2023-04-19T15:34:04.456Z,2.10
2023-04-19T15:36:32.009Z,2.40
2023-04-19T15:38:59.762Z,2.92
2023-04-19T15:41:27.170Z,2.08
2023-04-19T15:43:54.521Z,2.35
2023-04-19T15:46:22.277Z,2.28
2023-04-19T15:48:50.629Z,2.95
2023-04-19T15:51:18.003Z,2.13
2023-04-19T15:53:45.345Z,2.78
2023-04-19T15:56:12.751Z,2.25
2023-04-19T15:58:40.083Z,2.13
2023-04-19T16:01:13.645Z,2.78
2023-04-19T16:03:41.724Z,2.90
2023-04-19T16:06:09.873Z,2.95
2023-04-19T16:08:37.148Z,3.03
2023-04-19T16:11:05.975Z,2.75
2023-04-19T16:13:33.314Z,2.65
2023-04-19T16:16:01.389Z,2.42
2023-04-19T16:18:28.833Z,3.53
2023-04-19T16:20:56.249Z,2.80
2023-04-19T16:23:24.425Z,2.72
2023-04-19T16:25:51.723Z,2.50
2023-04-19T16:28:20.023Z,2.50
2023-04-19T16:30:47.528Z,2.63
2023-04-19T16:33:15.877Z,2.45
2023-04-19T16:35:43.323Z,2.50
2023-04-19T16:38:10.833Z,2.30
2023-04-19T16:40:38.283Z,2.10
2023-04-19T16:43:06.655Z,2.95
2023-04-19T16:45:34.027Z,2.33
2023-04-19T16:48:01.388Z,2.60
2023-04-19T16:50:28.720Z,2.13
2023-04-19T16:52:56.008Z,1.95
2023-04-19T16:55:23.421Z,2.13
2023-04-19T16:57:51.199Z,2.35
2023-04-19T17:00:19.086Z,2.10
2023-04-19T17:02:46.661Z,2.03
2023-04-19T17:05:16.144Z,2.25
2023-04-19T17:07:43.935Z,1.95
2023-04-19T17:10:12.385Z,2.30
2023-04-19T17:12:39.790Z,2.05
2023-04-19T17:15:07.437Z,1.95
2023-04-19T17:17:34.678Z,1.83
2023-04-19T17:20:02.067Z,1.80
2023-04-19T17:22:29.796Z,2.00
2023-04-19T17:24:58.874Z,1.70
2023-04-19T17:27:26.178Z,1.60
2023-04-19T17:29:53.440Z,2.30
2023-04-19T17:32:20.778Z,2.92
2023-04-19T17:34:48.227Z,5.60
2023-04-19T17:37:15.546Z,2.63
2023-04-19T17:39:42.929Z,2.47
2023-04-19T17:42:10.176Z,2.08
2023-04-19T17:44:37.529Z,1.77
2023-04-19T17:47:04.898Z,1.95
2023-04-19T17:49:32.277Z,1.58
2023-04-19T17:51:59.552Z,2.55
2023-04-19T17:54:26.825Z,1.40
2023-04-19T17:56:54.666Z,1.75
2023-04-19T17:59:22.198Z,1.63
2023-04-19T18:01:49.421Z,1.88
2023-04-19T18:04:19.956Z,1.77
2023-04-19T18:06:47.605Z,1.77
2023-04-19T18:09:16.907Z,2.30
2023-04-19T18:11:44.453Z,2.60
2023-04-19T18:14:11.694Z,1.90
2023-04-19T18:16:38.897Z,2.30
2023-04-19T18:19:06.184Z,2.35
2023-04-19T18:21:33.636Z,2.17
2023-04-19T18:24:00.972Z,1.85
2023-04-19T18:26:42.109Z,2.05
2023-04-19T18:29:10.327Z,1.90
2023-04-19T18:31:37.876Z,2.85
2023-04-19T18:34:05.155Z,3.30
2023-04-19T18:36:32.647Z,3.05
2023-04-19T18:39:00.001Z,2.30
2023-04-19T18:41:27.320Z,2.20
2023-04-19T18:44:24.688Z,2.17
2023-04-19T18:46:41.975Z,2.15
2023-04-19T18:49:10.190Z,2.30
2023-04-19T18:51:38.384Z,2.40
2023-04-19T18:54:05.829Z,2.13
2023-04-19T18:57:10.829Z,2.25
2023-04-19T18:59:20.424Z,2.22
2023-04-19T19:01:48.454Z,1.90
2023-04-19T19:04:42.952Z,2.13
2023-04-19T19:07:27.363Z,1.90
2023-04-19T19:09:57.117Z,2.65
2023-04-19T19:12:25.542Z,2.50
2023-04-19T19:14:52.907Z,2.10
2023-04-19T19:17:20.259Z,2.50
2023-04-19T19:19:47.609Z,2.95
2023-04-19T19:22:25.787Z,3.17
2023-04-19T19:24:54.820Z,2.40
2023-04-19T19:27:22.166Z,2.35
2023-04-19T19:29:49.862Z,2.65
2023-04-19T19:32:17.234Z,2.60
2023-04-19T19:34:54.940Z,3.17
2023-04-19T19:37:27.047Z,2.60
2023-04-19T19:39:56.441Z,2.35
2023-04-19T19:42:25.039Z,2.10
2023-04-19T19:44:55.924Z,2.30
2023-04-19T19:47:24.434Z,2.13
2023-04-19T19:52:22.422Z,2.38
2023-04-19T19:54:49.760Z,2.22
2023-04-19T19:59:55.615Z,2.15
2023-04-19T20:02:24.836Z,2.00
2023-04-19T20:04:52.589Z,1.88
2023-04-19T20:09:52.522Z,2.35
2023-04-19T20:12:19.799Z,2.17
2023-04-19T20:14:47.084Z,2.15
2023-04-19T20:17:14.559Z,2.20
2023-04-19T20:19:44.759Z,2.30
2023-04-19T20:22:12.326Z,2.15
2023-04-19T20:24:40.386Z,2.33
2023-04-19T20:27:07.761Z,2.17
2023-04-19T20:29:35.113Z,2.70
2023-04-19T20:32:02.533Z,2.20
2023-04-19T20:34:29.933Z,2.50
2023-04-19T20:36:58.676Z,1.83
2023-04-19T20:39:26.679Z,2.35
2023-04-19T20:41:54.032Z,2.85
2023-04-19T20:44:22.659Z,2.47
2023-04-19T20:46:52.011Z,2.55
2023-04-19T20:49:19.356Z,2.90
2023-04-19T20:51:48.408Z,2.53
2023-04-19T20:54:15.736Z,2.38
2023-04-19T20:56:43.085Z,2.00
2023-04-19T20:59:10.529Z,3.17
2023-04-19T21:01:37.980Z,2.50
2023-04-19T21:04:05.478Z,2.35
2023-04-19T21:06:32.917Z,2.67
2023-04-19T21:09:00.162Z,2.53
2023-04-19T21:11:27.458Z,2.72
2023-04-19T21:13:55.055Z,2.05
2023-04-19T21:16:22.759Z,2.60
2023-04-19T21:18:50.096Z,2.90
2023-04-19T21:21:17.458Z,2.95
2023-04-19T21:23:44.661Z,2.80
2023-04-19T21:26:12.091Z,2.83
2023-04-19T21:28:39.379Z,2.67
2023-04-19T21:31:07.008Z,2.50
2023-04-19T21:33:34.374Z,2.58
2023-04-19T21:36:01.923Z,2.67
2023-04-19T21:38:29.274Z,2.33
2023-04-19T21:40:56.782Z,2.35
2023-04-19T21:43:24.085Z,2.80
2023-04-19T21:45:51.581Z,2.47
2023-04-19T21:48:18.852Z,3.13
2023-04-19T21:50:46.226Z,2.80
2023-04-19T21:53:13.432Z,2.65
2023-04-19T21:55:40.673Z,2.75
2023-04-19T21:58:07.834Z,2.65
2023-04-19T22:00:35.172Z,2.85
2023-04-19T22:03:02.669Z,3.35
2023-04-19T22:05:30.015Z,3.50
2023-04-19T22:07:57.623Z,3.10
2023-04-19T22:10:25.734Z,3.40
2023-04-19T22:12:58.719Z,2.65
2023-04-19T22:15:27.874Z,3.20
2023-04-19T22:17:57.192Z,2.97
2023-04-19T22:20:25.913Z,3.60
2023-04-19T22:22:53.177Z,3.50
2023-04-19T22:25:20.521Z,3.28
2023-04-19T22:27:48.949Z,3.85
2023-04-19T22:30:16.473Z,2.80
2023-04-19T22:32:43.971Z,3.10
2023-04-19T22:35:11.325Z,3.15
2023-04-19T22:37:38.574Z,3.20
2023-04-19T22:40:06.796Z,2.60
2023-04-19T22:42:34.123Z,2.65
2023-04-19T22:45:01.369Z,3.13
2023-04-19T22:47:28.674Z,2.63
2023-04-19T22:49:56.016Z,2.50
2023-04-19T22:52:23.660Z,2.95
2023-04-19T22:54:50.902Z,2.65
2023-04-19T22:57:18.233Z,3.03
2023-04-19T22:59:45.654Z,3.25
2023-04-19T23:02:12.939Z,2.63
2023-04-19T23:04:40.877Z,2.90
2023-04-19T23:07:08.204Z,3.08
2023-04-19T23:09:39.001Z,2.80
2023-04-19T23:12:08.330Z,2.88
2023-04-19T23:14:35.718Z,3.28
2023-04-19T23:17:03.043Z,2.83
2023-04-19T23:19:30.472Z,3.30
2023-04-19T23:21:57.722Z,3.40
2023-04-19T23:24:25.526Z,3.60
2023-04-19T23:26:53.033Z,3.60
2023-04-19T23:29:20.579Z,3.35
2023-04-19T23:31:48.115Z,3.40
2023-04-19T23:34:16.566Z,3.17
2023-04-19T23:36:43.806Z,3.40
2023-04-19T23:39:11.022Z,3.17
2023-04-19T23:41:38.301Z,2.80
2023-04-19T23:44:05.890Z,3.10
2023-04-19T23:46:33.508Z,2.97
2023-04-19T23:49:00.962Z,3.42
2023-04-19T23:51:28.131Z,3.72
2023-04-19T23:53:55.411Z,3.53
2023-04-19T23:56:22.723Z,2.95
2023-04-19T23:58:50.003Z,3.45
